createdAt,value
2017-12-10T00:00:50.575Z,85.60
2017-12-10T00:01:53.081Z,85.90
2017-12-10T00:02:55.580Z,86.10
2017-12-10T00:03:58.855Z,86.00
2017-12-10T00:05:02.119Z,85.90
2017-12-10T00:06:04.636Z,85.90
2017-12-10T00:07:07.131Z,86.90
2017-12-10T00:08:09.618Z,86.20
2017-12-10T00:09:12.113Z,86.30
2017-12-10T00:10:15.373Z,86.20
2017-12-10T00:11:17.860Z,86.20
2017-12-10T00:12:21.120Z,86.40
2017-12-10T00:13:27.149Z,86.40
2017-12-10T00:14:29.665Z,86.30
2017-12-10T00:15:34.133Z,86.00
2017-12-10T00:16:36.610Z,86.80
2017-12-10T00:17:39.125Z,86.10
2017-12-10T00:18:41.596Z,86.60
2017-12-10T00:19:44.105Z,85.90
2017-12-10T00:20:46.651Z,85.70
2017-12-10T00:21:49.127Z,85.80
2017-12-10T00:22:51.622Z,85.70
2017-12-10T00:23:54.911Z,85.80
2017-12-10T00:24:58.163Z,85.60
2017-12-10T00:26:00.649Z,85.60
2017-12-10T00:27:03.880Z,85.40
2017-12-10T00:28:06.359Z,85.40
2017-12-10T00:29:08.855Z,85.60
2017-12-10T00:30:11.357Z,85.70
2017-12-10T00:31:13.859Z,85.90
2017-12-10T00:32:16.333Z,86.00
2017-12-10T00:33:18.813Z,86.00
2017-12-10T00:34:21.291Z,85.70
2017-12-10T00:35:24.555Z,85.50
2017-12-10T00:36:27.086Z,85.40
2017-12-10T00:37:29.598Z,86.10
2017-12-10T00:38:32.909Z,85.70
2017-12-10T00:39:35.394Z,85.70
2017-12-10T00:40:37.916Z,85.70
2017-12-10T00:41:41.175Z,86.40
2017-12-10T00:42:44.676Z,85.60
2017-12-10T00:43:47.154Z,85.90
2017-12-10T00:44:53.701Z,85.90
2017-12-10T00:45:56.182Z,85.90
2017-12-10T00:46:59.455Z,86.10
2017-12-10T00:48:01.935Z,86.10
2017-12-10T00:49:06.192Z,86.90
2017-12-10T00:50:08.904Z,86.90
2017-12-10T00:51:15.519Z,86.00
2017-12-10T00:52:18.012Z,86.00
2017-12-10T00:53:20.525Z,86.00
2017-12-10T00:54:22.991Z,85.90
2017-12-10T00:55:25.499Z,86.20
2017-12-10T00:56:27.975Z,86.00
2017-12-10T00:57:31.554Z,85.90
2017-12-10T00:58:34.041Z,85.90
2017-12-10T00:59:37.320Z,86.20
2017-12-10T01:00:39.832Z,86.10
2017-12-10T01:01:42.300Z,86.00
2017-12-10T01:02:44.804Z,86.10
2017-12-10T01:03:48.309Z,85.60
2017-12-10T01:04:51.537Z,86.60
2017-12-10T01:05:57.003Z,85.80
2017-12-10T01:07:00.268Z,85.90
2017-12-10T01:08:03.722Z,85.80
2017-12-10T01:09:06.214Z,85.10
2017-12-10T01:10:08.790Z,85.00
2017-12-10T01:11:11.283Z,85.40
2017-12-10T01:12:14.553Z,85.00
2017-12-10T01:13:17.040Z,85.00
2017-12-10T01:14:20.312Z,86.00
2017-12-10T01:15:22.863Z,85.20
2017-12-10T01:16:25.348Z,86.00
2017-12-10T01:17:27.853Z,85.00
2017-12-10T01:18:31.390Z,85.00
2017-12-10T01:19:33.910Z,85.60
2017-12-10T01:20:36.390Z,85.20
2017-12-10T01:21:38.949Z,85.00
2017-12-10T01:22:41.461Z,85.00
2017-12-10T01:23:43.929Z,85.00
2017-12-10T01:24:47.966Z,84.70
2017-12-10T01:25:50.455Z,84.70
2017-12-10T01:26:52.924Z,84.60
2017-12-10T01:27:55.586Z,85.00
2017-12-10T01:28:58.059Z,84.60
2017-12-10T01:30:00.622Z,84.70
2017-12-10T01:31:03.121Z,84.60
2017-12-10T01:32:05.616Z,84.70
2017-12-10T01:33:08.093Z,84.80
2017-12-10T01:34:10.615Z,84.80
2017-12-10T01:35:14.000Z,84.60
2017-12-10T01:36:17.251Z,85.80
2017-12-10T01:37:19.973Z,84.90
2017-12-10T01:38:23.217Z,84.50
2017-12-10T01:39:25.699Z,84.50
2017-12-10T01:40:28.191Z,84.40
2017-12-10T01:41:34.970Z,84.70
2017-12-10T01:42:38.221Z,84.80
2017-12-10T01:43:40.743Z,84.80
2017-12-10T01:44:43.238Z,84.60
2017-12-10T01:45:45.732Z,84.60
2017-12-10T01:46:49.000Z,84.30
2017-12-10T01:47:51.510Z,84.30
2017-12-10T01:48:54.028Z,84.40
2017-12-10T01:49:56.535Z,84.30
2017-12-10T01:50:59.043Z,84.70
2017-12-10T01:52:01.565Z,84.60
2017-12-10T01:53:04.041Z,84.30
2017-12-10T01:54:06.621Z,84.50
2017-12-10T01:55:09.289Z,85.00
2017-12-10T01:56:12.076Z,84.20
2017-12-10T01:57:14.779Z,84.30
2017-12-10T01:58:18.051Z,84.80
2017-12-10T01:59:20.539Z,84.80
2017-12-10T02:00:26.757Z,84.40
2017-12-10T02:01:30.169Z,84.60
2017-12-10T02:02:32.669Z,84.70
2017-12-10T02:03:35.924Z,84.50
2017-12-10T02:04:38.490Z,84.50
2017-12-10T02:05:41.587Z,84.10
2017-12-10T02:06:45.868Z,84.40
2017-12-10T02:07:48.395Z,84.40
2017-12-10T02:08:51.916Z,84.60
2017-12-10T02:09:54.404Z,84.90
2017-12-10T02:10:56.886Z,84.80
2017-12-10T02:12:00.187Z,84.70
2017-12-10T02:13:02.669Z,84.60
2017-12-10T02:14:06.177Z,84.70
2017-12-10T02:15:08.670Z,84.60
2017-12-10T02:16:12.648Z,84.90
2017-12-10T02:17:15.141Z,84.90
2017-12-10T02:18:19.420Z,85.40
2017-12-10T02:19:21.926Z,84.60
2017-12-10T02:20:25.161Z,84.90
2017-12-10T02:21:27.650Z,84.90
2017-12-10T02:22:30.130Z,85.00
2017-12-10T02:23:33.356Z,84.90
2017-12-10T02:24:36.896Z,84.90
2017-12-10T02:25:40.138Z,84.30
2017-12-10T02:26:42.608Z,84.20
2017-12-10T02:27:45.092Z,84.60
2017-12-10T02:28:47.583Z,84.50
2017-12-10T02:29:50.814Z,85.00
2017-12-10T02:30:53.385Z,85.00
2017-12-10T02:31:55.873Z,84.70
2017-12-10T02:32:58.351Z,85.70
2017-12-10T02:34:00.842Z,84.90
2017-12-10T02:35:03.363Z,85.10
2017-12-10T02:36:05.841Z,84.70
2017-12-10T02:37:10.105Z,85.10
2017-12-10T02:38:12.651Z,85.10
2017-12-10T02:39:15.168Z,84.60
2017-12-10T02:40:17.650Z,84.60
2017-12-10T02:41:20.908Z,84.60
2017-12-10T02:42:23.793Z,84.60
2017-12-10T02:43:27.054Z,85.10
2017-12-10T02:44:29.528Z,84.40
2017-12-10T02:45:32.017Z,84.70
2017-12-10T02:46:34.510Z,84.70
2017-12-10T02:47:37.040Z,84.50
2017-12-10T02:48:40.305Z,84.70
2017-12-10T02:49:42.887Z,84.70
2017-12-10T02:50:45.372Z,84.50
2017-12-10T02:51:48.751Z,84.70
2017-12-10T02:52:51.263Z,84.10
2017-12-10T02:53:53.807Z,84.30
2017-12-10T02:54:57.040Z,84.40
2017-12-10T02:55:59.540Z,84.30
2017-12-10T02:57:02.777Z,84.50
2017-12-10T02:58:05.291Z,84.50
2017-12-10T02:59:08.534Z,84.20
2017-12-10T03:00:11.026Z,84.20
2017-12-10T03:01:13.555Z,84.40
2017-12-10T03:02:19.305Z,84.40
2017-12-10T03:03:21.788Z,84.20
2017-12-10T03:04:28.523Z,84.00
2017-12-10T03:05:30.993Z,84.00
2017-12-10T03:06:33.478Z,83.90
2017-12-10T03:07:35.947Z,84.80
2017-12-10T03:08:43.075Z,84.30
2017-12-10T03:09:45.558Z,83.90
2017-12-10T03:10:48.024Z,84.00
2017-12-10T03:11:50.546Z,84.10
2017-12-10T03:12:53.784Z,84.90
2017-12-10T03:13:56.274Z,84.10
2017-12-10T03:14:58.768Z,84.00
2017-12-10T03:16:01.309Z,84.10
2017-12-10T03:17:04.560Z,84.00
2017-12-10T03:18:11.004Z,84.00
2017-12-10T03:19:13.523Z,83.90
2017-12-10T03:20:16.778Z,83.70
2017-12-10T03:21:19.244Z,83.70
2017-12-10T03:22:21.729Z,84.10
2017-12-10T03:23:24.209Z,83.40
2017-12-10T03:24:27.489Z,83.90
2017-12-10T03:25:30.737Z,83.40
2017-12-10T03:26:33.200Z,83.30
2017-12-10T03:27:36.508Z,82.70
2017-12-10T03:28:38.991Z,83.10
2017-12-10T03:29:46.115Z,83.30
2017-12-10T03:30:48.588Z,83.30
2017-12-10T03:31:52.048Z,82.90
2017-12-10T03:32:54.531Z,83.20
2017-12-10T03:33:57.030Z,83.60
2017-12-10T03:34:59.489Z,83.40
2017-12-10T03:36:01.968Z,83.40
2017-12-10T03:37:05.228Z,84.20
2017-12-10T03:38:07.692Z,84.20
2017-12-10T03:39:10.200Z,84.10
2017-12-10T03:40:12.693Z,84.40
2017-12-10T03:41:15.159Z,85.70
2017-12-10T03:42:21.328Z,84.70
2017-12-10T03:43:23.801Z,84.60
2017-12-10T03:44:30.450Z,83.80
2017-12-10T03:45:32.918Z,84.20
2017-12-10T03:46:35.392Z,84.20
2017-12-10T03:47:37.872Z,84.20
2017-12-10T03:48:40.366Z,84.50
2017-12-10T03:49:42.910Z,84.80
2017-12-10T03:50:46.147Z,84.70
2017-12-10T03:51:48.644Z,84.70
2017-12-10T03:52:51.161Z,84.40
2017-12-10T03:53:53.694Z,84.50
2017-12-10T03:54:57.981Z,84.60
2017-12-10T03:56:00.483Z,84.60
2017-12-10T03:57:02.971Z,84.50
2017-12-10T03:58:05.464Z,84.70
2017-12-10T03:59:07.942Z,84.90
2017-12-10T04:00:10.408Z,84.50
2017-12-10T04:01:12.921Z,84.60
2017-12-10T04:02:15.405Z,84.60
2017-12-10T04:03:17.880Z,84.70
2017-12-10T04:04:20.377Z,84.70
2017-12-10T04:05:23.613Z,84.80
2017-12-10T04:06:26.117Z,84.80
2017-12-10T04:07:29.576Z,85.10
2017-12-10T04:08:32.037Z,85.80
2017-12-10T04:09:34.529Z,85.10
2017-12-10T04:10:38.516Z,85.10
2017-12-10T04:11:41.006Z,85.10
2017-12-10T04:12:43.486Z,85.20
2017-12-10T04:13:46.764Z,85.50
2017-12-10T04:14:50.004Z,85.30
2017-12-10T04:15:52.475Z,85.30
2017-12-10T04:16:54.952Z,85.80
2017-12-10T04:17:57.433Z,85.80
2017-12-10T04:18:59.892Z,85.80
2017-12-10T04:20:03.372Z,86.20
2017-12-10T04:21:05.850Z,87.20
2017-12-10T04:22:09.087Z,86.90
2017-12-10T04:23:11.574Z,86.90
2017-12-10T04:24:14.036Z,87.30
2017-12-10T04:25:16.513Z,87.60
2017-12-10T04:26:19.089Z,88.00
2017-12-10T04:27:21.570Z,87.90
2017-12-10T04:28:24.809Z,89.00
2017-12-10T04:29:27.290Z,88.90
2017-12-10T04:30:29.765Z,89.20
2017-12-10T04:31:32.842Z,89.80
2017-12-10T04:32:35.327Z,89.60
2017-12-10T04:33:38.572Z,89.30
2017-12-10T04:34:43.062Z,89.20
2017-12-10T04:35:45.568Z,89.60
2017-12-10T04:36:48.836Z,89.40
2017-12-10T04:37:51.317Z,89.40
2017-12-10T04:38:54.758Z,89.50
2017-12-10T04:39:57.229Z,89.70
2017-12-10T04:40:59.702Z,89.40
2017-12-10T04:42:02.188Z,89.60
2017-12-10T04:43:04.663Z,90.00
2017-12-10T04:44:07.148Z,89.90
2017-12-10T04:45:10.389Z,89.90
2017-12-10T04:46:12.876Z,89.90
2017-12-10T04:47:15.378Z,89.90
2017-12-10T04:48:17.862Z,90.00
2017-12-10T04:49:20.328Z,90.00
2017-12-10T04:50:22.805Z,90.10
2017-12-10T04:51:25.296Z,90.10
2017-12-10T04:52:27.765Z,90.00
2017-12-10T04:53:30.257Z,89.90
2017-12-10T04:54:33.495Z,89.50
2017-12-10T04:55:35.970Z,89.50
2017-12-10T04:56:38.485Z,89.60
2017-12-10T04:57:40.980Z,89.70
2017-12-10T04:58:43.476Z,89.70
2017-12-10T04:59:46.720Z,90.20
2017-12-10T05:00:49.192Z,89.70
2017-12-10T05:01:51.664Z,89.70
2017-12-10T05:02:54.150Z,89.80
2017-12-10T05:03:56.618Z,89.70
2017-12-10T05:04:59.901Z,90.00
2017-12-10T05:06:03.338Z,90.00
2017-12-10T05:07:05.840Z,90.00
2017-12-10T05:08:09.109Z,90.30
2017-12-10T05:09:11.584Z,90.00
2017-12-10T05:10:17.726Z,90.20
2017-12-10T05:11:20.200Z,90.30
2017-12-10T05:12:22.681Z,90.40
2017-12-10T05:13:25.192Z,90.50
2017-12-10T05:14:28.703Z,90.40
2017-12-10T05:15:31.160Z,90.60
2017-12-10T05:16:33.674Z,90.60
2017-12-10T05:17:36.916Z,90.90
2017-12-10T05:18:39.422Z,90.90
2017-12-10T05:19:42.659Z,91.00
2017-12-10T05:20:45.136Z,91.00
2017-12-10T05:21:47.627Z,91.10
2017-12-10T05:22:50.111Z,91.20
2017-12-10T05:23:53.365Z,91.20
2017-12-10T05:24:59.255Z,91.20
2017-12-10T05:26:01.744Z,91.50
2017-12-10T05:27:04.227Z,91.20
2017-12-10T05:28:06.691Z,91.30
2017-12-10T05:29:09.181Z,91.50
2017-12-10T05:30:11.670Z,91.70
2017-12-10T05:31:14.915Z,91.30
2017-12-10T05:32:17.390Z,91.30
2017-12-10T05:33:23.512Z,91.20
2017-12-10T05:34:25.992Z,91.40
2017-12-10T05:35:28.481Z,91.20
2017-12-10T05:36:31.730Z,91.30
2017-12-10T05:37:35.196Z,91.30
2017-12-10T05:38:37.673Z,91.30
2017-12-10T05:39:40.169Z,91.30
2017-12-10T05:40:43.375Z,91.30
2017-12-10T05:41:46.619Z,91.30
2017-12-10T05:42:49.156Z,91.30
2017-12-10T05:43:51.631Z,91.40
2017-12-10T05:44:54.106Z,91.30
2017-12-10T05:45:56.585Z,91.20
2017-12-10T05:46:59.271Z,91.30
2017-12-10T05:48:01.740Z,91.30
2017-12-10T05:49:04.980Z,91.30
2017-12-10T05:50:10.916Z,91.30
2017-12-10T05:51:13.391Z,91.20
2017-12-10T05:52:15.898Z,91.20
2017-12-10T05:53:18.374Z,91.20
2017-12-10T05:54:21.625Z,91.00
2017-12-10T05:55:24.103Z,91.00
2017-12-10T05:56:26.577Z,90.90
2017-12-10T05:57:29.850Z,90.80
2017-12-10T05:58:32.380Z,90.80
2017-12-10T05:59:34.850Z,90.90
2017-12-10T06:00:37.324Z,90.70
2017-12-10T06:01:39.858Z,90.50
2017-12-10T06:02:42.351Z,90.40
2017-12-10T06:03:45.679Z,90.40
2017-12-10T06:04:49.888Z,90.10
2017-12-10T06:05:53.159Z,90.10
2017-12-10T06:06:57.428Z,90.00
2017-12-10T06:07:59.939Z,90.00
2017-12-10T06:09:03.174Z,90.00
2017-12-10T06:10:05.667Z,90.00
2017-12-10T06:11:09.832Z,90.00
2017-12-10T06:12:12.376Z,90.00
2017-12-10T06:13:16.812Z,90.00
2017-12-10T06:14:19.296Z,90.00
2017-12-10T06:15:21.775Z,90.00
2017-12-10T06:16:25.760Z,90.00
2017-12-10T06:17:29.223Z,90.00
2017-12-10T06:18:31.766Z,89.90
2017-12-10T06:19:35.184Z,89.70
2017-12-10T06:20:37.666Z,89.40
2017-12-10T06:21:40.140Z,89.40
2017-12-10T06:22:42.611Z,89.40
2017-12-10T06:23:46.624Z,89.40
2017-12-10T06:24:49.896Z,89.50
2017-12-10T06:25:52.377Z,89.60
2017-12-10T06:26:55.624Z,89.40
2017-12-10T06:27:58.117Z,89.30
2017-12-10T06:29:00.885Z,89.30
2017-12-10T06:30:04.120Z,89.30
2017-12-10T06:31:06.593Z,89.20
2017-12-10T06:32:09.057Z,89.30
2017-12-10T06:33:11.581Z,89.20
2017-12-10T06:34:14.831Z,88.80
2017-12-10T06:35:17.346Z,88.80
2017-12-10T06:36:19.844Z,88.80
2017-12-10T06:37:22.372Z,88.50
2017-12-10T06:38:25.616Z,88.90
2017-12-10T06:39:28.123Z,88.90
2017-12-10T06:40:31.627Z,89.30
2017-12-10T06:41:34.121Z,89.50
2017-12-10T06:42:36.603Z,89.60
2017-12-10T06:43:39.076Z,89.40
2017-12-10T06:44:41.540Z,89.90
2017-12-10T06:45:44.783Z,89.70
2017-12-10T06:46:50.343Z,89.70
2017-12-10T06:47:52.838Z,90.00
2017-12-10T06:48:56.115Z,90.20
2017-12-10T06:49:59.379Z,90.20
2017-12-10T06:51:02.884Z,90.20
2017-12-10T06:52:05.383Z,90.20
2017-12-10T06:53:11.569Z,90.10
2017-12-10T06:54:14.058Z,90.10
2017-12-10T06:55:16.556Z,90.10
2017-12-10T06:56:19.028Z,90.30
2017-12-10T06:57:21.546Z,90.20
2017-12-10T06:58:24.021Z,90.30
2017-12-10T06:59:27.386Z,90.50
2017-12-10T07:00:29.859Z,90.40
2017-12-10T07:01:32.344Z,90.50
2017-12-10T07:02:35.720Z,90.50
2017-12-10T07:03:39.267Z,90.50
2017-12-10T07:04:42.400Z,90.40
2017-12-10T07:05:45.636Z,90.60
2017-12-10T07:06:48.104Z,90.60
2017-12-10T07:07:50.591Z,90.60
2017-12-10T07:08:53.852Z,90.70
2017-12-10T07:09:56.316Z,90.70
2017-12-10T07:10:58.832Z,90.70
2017-12-10T07:12:02.184Z,90.80
2017-12-10T07:13:04.672Z,90.70
2017-12-10T07:14:07.180Z,90.80
2017-12-10T07:15:09.662Z,90.50
2017-12-10T07:16:12.144Z,90.70
2017-12-10T07:17:14.619Z,90.60
2017-12-10T07:18:17.127Z,90.60
2017-12-10T07:19:19.615Z,90.60
2017-12-10T07:20:22.086Z,90.60
2017-12-10T07:21:24.569Z,90.60
2017-12-10T07:22:27.045Z,90.60
2017-12-10T07:23:30.307Z,90.70
2017-12-10T07:24:32.798Z,90.70
2017-12-10T07:25:35.303Z,90.70
2017-12-10T07:26:37.999Z,90.80
2017-12-10T07:27:40.512Z,90.80
2017-12-10T07:28:43.768Z,90.60
2017-12-10T07:29:46.235Z,90.60
2017-12-10T07:30:48.721Z,90.60
2017-12-10T07:31:51.213Z,90.60
2017-12-10T07:32:54.614Z,90.90
2017-12-10T07:33:57.130Z,90.60
2017-12-10T07:34:59.631Z,90.60
2017-12-10T07:36:02.112Z,90.80
2017-12-10T07:37:04.609Z,90.90
2017-12-10T07:38:07.089Z,90.80
2017-12-10T07:39:09.567Z,90.80
2017-12-10T07:40:12.052Z,90.80
2017-12-10T07:41:14.529Z,90.80
2017-12-10T07:42:17.009Z,90.80
2017-12-10T07:43:19.483Z,90.70
2017-12-10T07:44:21.958Z,90.70
2017-12-10T07:45:24.450Z,90.60
2017-12-10T07:46:26.930Z,90.50
2017-12-10T07:47:30.667Z,90.50
2017-12-10T07:48:33.788Z,90.50
2017-12-10T07:49:36.271Z,90.50
2017-12-10T07:50:39.543Z,90.30
2017-12-10T07:51:42.792Z,90.30
2017-12-10T07:52:45.272Z,90.30
2017-12-10T07:53:47.908Z,90.20
2017-12-10T07:54:50.412Z,90.20
2017-12-10T07:55:53.171Z,90.00
2017-12-10T07:56:55.696Z,90.00
2017-12-10T07:57:59.224Z,90.00
2017-12-10T07:59:01.767Z,90.00
2017-12-10T08:00:04.317Z,90.30
2017-12-10T08:01:07.783Z,90.20
2017-12-10T08:02:10.469Z,89.90
2017-12-10T08:03:13.937Z,89.70
2017-12-10T08:04:17.231Z,89.10
2017-12-10T08:05:19.964Z,89.10
2017-12-10T08:06:23.961Z,89.20
2017-12-10T08:07:27.291Z,89.00
2017-12-10T08:08:29.907Z,88.90
2017-12-10T08:09:32.418Z,88.80
2017-12-10T08:10:35.227Z,88.70
2017-12-10T08:11:37.908Z,88.70
2017-12-10T08:12:40.481Z,88.40
2017-12-10T08:13:43.018Z,88.40
2017-12-10T08:14:46.022Z,88.40
2017-12-10T08:15:48.551Z,88.20
2017-12-10T08:16:51.352Z,88.20
2017-12-10T08:17:53.890Z,87.80
2017-12-10T08:18:57.437Z,87.60
2017-12-10T08:20:00.724Z,88.10
2017-12-10T08:21:03.430Z,87.40
2017-12-10T08:22:05.920Z,87.10
2017-12-10T08:23:08.540Z,87.00
2017-12-10T08:24:11.842Z,86.70
2017-12-10T08:25:14.377Z,86.70
2017-12-10T08:26:16.843Z,87.00
2017-12-10T08:27:20.214Z,86.90
2017-12-10T08:28:22.703Z,86.80
2017-12-10T08:29:27.004Z,86.60
2017-12-10T08:30:29.515Z,86.50
2017-12-10T08:31:33.046Z,86.90
2017-12-10T08:32:37.110Z,85.80
2017-12-10T08:33:42.808Z,85.80
2017-12-10T08:34:46.076Z,85.50
2017-12-10T08:35:49.410Z,85.70
2017-12-10T08:36:51.909Z,85.70
2017-12-10T08:37:54.421Z,85.20
2017-12-10T08:38:57.903Z,85.00
2017-12-10T08:40:01.321Z,84.70
2017-12-10T08:41:03.992Z,84.60
2017-12-10T08:42:06.519Z,84.50
2017-12-10T08:43:09.875Z,84.20
2017-12-10T08:44:12.393Z,84.20
2017-12-10T08:45:16.661Z,84.50
2017-12-10T08:46:19.264Z,84.20
2017-12-10T08:47:22.831Z,84.10
2017-12-10T08:48:25.647Z,84.10
2017-12-10T08:49:28.178Z,83.90
2017-12-10T08:50:31.442Z,84.00
2017-12-10T08:51:33.958Z,84.00
2017-12-10T08:52:36.455Z,83.70
2017-12-10T08:53:38.940Z,83.60
2017-12-10T08:54:42.082Z,83.70
2017-12-10T08:55:44.732Z,83.90
2017-12-10T08:56:47.258Z,83.70
2017-12-10T08:57:49.886Z,83.70
2017-12-10T08:58:52.395Z,83.80
2017-12-10T08:59:54.963Z,84.50
2017-12-10T09:00:58.284Z,83.40
2017-12-10T09:02:01.020Z,83.40
2017-12-10T09:03:03.543Z,83.60
2017-12-10T09:04:06.062Z,83.60
2017-12-10T09:05:08.559Z,84.00
2017-12-10T09:06:12.101Z,83.90
2017-12-10T09:07:14.664Z,83.50
2017-12-10T09:08:17.139Z,83.50
2017-12-10T09:09:20.376Z,84.50
2017-12-10T09:10:22.876Z,83.60
2017-12-10T09:11:26.145Z,83.40
2017-12-10T09:12:28.650Z,83.40
2017-12-10T09:13:32.990Z,83.40
2017-12-10T09:14:35.504Z,83.40
2017-12-10T09:15:38.012Z,82.80
2017-12-10T09:16:40.500Z,82.90
2017-12-10T09:17:43.018Z,82.90
2017-12-10T09:18:46.268Z,83.20
2017-12-10T09:19:48.750Z,83.20
2017-12-10T09:20:51.991Z,84.00
2017-12-10T09:21:54.474Z,83.50
2017-12-10T09:22:56.984Z,83.60
2017-12-10T09:24:00.226Z,83.70
2017-12-10T09:25:02.703Z,83.70
2017-12-10T09:26:05.206Z,83.90
2017-12-10T09:27:11.294Z,83.90
2017-12-10T09:28:14.032Z,83.80
2017-12-10T09:29:16.576Z,83.90
2017-12-10T09:30:19.829Z,83.50
2017-12-10T09:31:22.336Z,83.50
2017-12-10T09:32:25.577Z,83.90
2017-12-10T09:33:28.064Z,83.90
2017-12-10T09:34:30.568Z,84.30
2017-12-10T09:35:33.816Z,83.80
2017-12-10T09:36:36.393Z,83.60
2017-12-10T09:37:39.671Z,84.00
2017-12-10T09:38:43.165Z,84.00
2017-12-10T09:39:46.409Z,84.10
2017-12-10T09:40:49.912Z,84.00
2017-12-10T09:41:52.432Z,85.00
2017-12-10T09:42:55.982Z,84.30
2017-12-10T09:43:58.482Z,84.40
2017-12-10T09:45:00.984Z,84.50
2017-12-10T09:46:03.550Z,84.40
2017-12-10T09:47:06.136Z,84.00
2017-12-10T09:48:08.672Z,84.10
2017-12-10T09:49:11.175Z,84.00
2017-12-10T09:50:13.672Z,84.30
2017-12-10T09:51:16.182Z,84.30
2017-12-10T09:52:18.656Z,84.30
2017-12-10T09:53:21.185Z,84.10
2017-12-10T09:54:23.676Z,84.30
2017-12-10T09:55:26.286Z,84.10
2017-12-10T09:56:30.272Z,84.30
2017-12-10T09:57:33.020Z,84.30
2017-12-10T09:58:35.509Z,84.30
2017-12-10T09:59:38.025Z,84.20
2017-12-10T10:00:40.546Z,83.60
2017-12-10T10:01:43.049Z,84.10
2017-12-10T10:02:45.992Z,84.20
2017-12-10T10:03:49.476Z,84.40
2017-12-10T10:04:52.732Z,84.20
2017-12-10T10:05:57.245Z,84.20
2017-12-10T10:06:59.756Z,84.20
2017-12-10T10:08:03.302Z,83.90
2017-12-10T10:09:05.785Z,83.70
2017-12-10T10:10:08.290Z,83.40
2017-12-10T10:11:11.918Z,83.10
2017-12-10T10:12:14.396Z,82.90
2017-12-10T10:13:16.908Z,83.10
2017-12-10T10:14:19.394Z,83.20
2017-12-10T10:15:21.894Z,82.80
2017-12-10T10:16:24.379Z,82.80
2017-12-10T10:17:27.645Z,83.10
2017-12-10T10:18:30.121Z,83.10
2017-12-10T10:19:36.644Z,83.20
2017-12-10T10:20:40.119Z,82.70
2017-12-10T10:21:42.727Z,82.40
2017-12-10T10:22:46.116Z,82.20
2017-12-10T10:23:49.392Z,82.50
2017-12-10T10:24:54.662Z,82.40
2017-12-10T10:25:57.153Z,82.30
2017-12-10T10:26:59.680Z,82.40
2017-12-10T10:28:02.458Z,82.50
2017-12-10T10:29:08.221Z,82.30
2017-12-10T10:30:10.756Z,82.30
2017-12-10T10:31:14.041Z,81.70
2017-12-10T10:32:17.328Z,81.90
2017-12-10T10:33:20.598Z,81.60
2017-12-10T10:34:24.016Z,81.80
2017-12-10T10:35:26.984Z,81.60
2017-12-10T10:36:29.605Z,81.70
2017-12-10T10:37:32.151Z,81.60
2017-12-10T10:38:34.644Z,81.50
2017-12-10T10:39:38.154Z,81.10
2017-12-10T10:40:40.699Z,80.90
2017-12-10T10:41:43.473Z,81.20
2017-12-10T10:42:45.998Z,81.00
2017-12-10T10:43:52.806Z,81.20
2017-12-10T10:44:55.297Z,81.00
2017-12-10T10:45:58.604Z,81.10
2017-12-10T10:47:01.171Z,81.10
2017-12-10T10:48:04.018Z,81.40
2017-12-10T10:49:06.531Z,81.40
2017-12-10T10:50:09.008Z,81.00
2017-12-10T10:51:11.494Z,81.00
2017-12-10T10:52:14.185Z,80.70
2017-12-10T10:53:16.672Z,80.30
2017-12-10T10:54:20.412Z,80.20
2017-12-10T10:55:22.907Z,80.40
2017-12-10T10:56:26.574Z,80.60
2017-12-10T10:57:29.096Z,80.40
2017-12-10T10:58:32.541Z,80.60
2017-12-10T10:59:35.057Z,80.50
2017-12-10T11:00:37.557Z,80.70
2017-12-10T11:01:40.046Z,81.00
2017-12-10T11:02:44.822Z,80.90
2017-12-10T11:03:47.325Z,80.40
2017-12-10T11:04:49.801Z,80.90
2017-12-10T11:05:52.352Z,80.70
2017-12-10T11:06:54.866Z,80.30
2017-12-10T11:07:57.379Z,79.90
2017-12-10T11:08:59.864Z,80.20
2017-12-10T11:10:03.114Z,80.20
2017-12-10T11:11:05.876Z,80.00
2017-12-10T11:12:08.387Z,80.20
2017-12-10T11:13:11.884Z,80.20
2017-12-10T11:14:15.135Z,80.10
2017-12-10T11:15:17.818Z,80.00
2017-12-10T11:16:20.324Z,80.30
2017-12-10T11:17:23.139Z,81.00
2017-12-10T11:18:25.610Z,79.50
2017-12-10T11:19:29.435Z,79.50
2017-12-10T11:20:34.174Z,79.60
2017-12-10T11:21:37.954Z,79.60
2017-12-10T11:22:41.931Z,79.80
2017-12-10T11:23:47.605Z,79.80
2017-12-10T11:24:53.368Z,79.20
2017-12-10T11:25:58.036Z,79.50
2017-12-10T11:27:03.863Z,79.50
2017-12-10T11:28:09.490Z,79.50
2017-12-10T11:29:16.201Z,79.30
2017-12-10T11:30:22.948Z,79.40
2017-12-10T11:31:27.143Z,79.70
2017-12-10T11:32:42.952Z,79.70
2017-12-10T11:33:45.679Z,79.60
2017-12-10T11:34:48.250Z,79.70
2017-12-10T11:35:50.726Z,79.70
2017-12-10T11:36:53.254Z,79.70
2017-12-10T11:37:55.748Z,79.50
2017-12-10T11:38:58.224Z,78.70
2017-12-10T11:40:00.764Z,78.90
2017-12-10T11:41:03.293Z,79.00
2017-12-10T11:42:05.798Z,79.60
2017-12-10T11:43:08.381Z,80.10
2017-12-10T11:44:10.864Z,80.20
2017-12-10T11:45:14.461Z,81.00
2017-12-10T11:46:17.909Z,81.60
2017-12-10T11:47:20.852Z,81.60
2017-12-10T11:48:23.341Z,82.30
2017-12-10T11:49:26.202Z,83.00
2017-12-10T11:50:28.747Z,83.20
2017-12-10T11:51:31.610Z,84.30
2017-12-10T11:52:34.861Z,86.30
2017-12-10T11:53:37.506Z,86.40
2017-12-10T11:54:40.619Z,87.60
2017-12-10T11:55:44.009Z,89.40
2017-12-10T11:56:46.565Z,88.80
2017-12-10T11:57:50.575Z,89.40
2017-12-10T11:58:53.487Z,89.40
2017-12-10T11:59:56.303Z,89.80
2017-12-10T12:00:58.831Z,90.00
2017-12-10T12:02:01.631Z,90.00
2017-12-10T12:03:04.141Z,90.20
2017-12-10T12:04:07.491Z,90.90
2017-12-10T12:05:10.006Z,90.80
2017-12-10T12:06:12.632Z,90.90
2017-12-10T12:07:15.196Z,91.20
2017-12-10T12:08:18.013Z,91.30
2017-12-10T12:09:20.515Z,91.60
2017-12-10T12:10:23.370Z,91.80
2017-12-10T12:13:04.610Z,92.10
2017-12-10T12:14:10.955Z,92.40
2017-12-10T12:15:14.426Z,92.60
2017-12-10T12:16:17.440Z,92.60
2017-12-10T12:17:20.281Z,92.60
2017-12-10T12:18:23.639Z,92.60
2017-12-10T12:19:26.972Z,92.60
2017-12-10T12:20:29.763Z,92.60
2017-12-10T12:21:33.091Z,92.70
2017-12-10T12:22:36.938Z,92.60
2017-12-10T12:23:39.782Z,92.60
2017-12-10T12:24:42.961Z,92.50
2017-12-10T12:25:45.651Z,92.70
2017-12-10T12:26:48.763Z,92.70
2017-12-10T12:27:51.347Z,92.70
2017-12-10T12:28:54.115Z,92.90
2017-12-10T12:29:56.626Z,93.00
2017-12-10T12:30:59.177Z,93.10
2017-12-10T12:32:02.449Z,93.00
2017-12-10T12:33:06.042Z,93.10
2017-12-10T12:34:09.386Z,93.30
2017-12-10T12:35:12.018Z,93.30
2017-12-10T12:36:14.583Z,93.40
2017-12-10T12:37:17.299Z,93.50
2017-12-10T12:38:19.815Z,93.40
2017-12-10T12:39:22.345Z,93.30
2017-12-10T12:40:24.921Z,93.20
2017-12-10T12:41:27.671Z,93.30
2017-12-10T12:42:30.163Z,93.30
2017-12-10T12:43:33.637Z,93.40
2017-12-10T12:44:36.228Z,93.40
2017-12-10T12:45:45.834Z,93.30
2017-12-10T12:46:49.142Z,93.90
2017-12-10T12:47:52.528Z,93.80
2017-12-10T12:48:55.838Z,93.90
2017-12-10T12:49:58.512Z,93.80
2017-12-10T12:51:01.060Z,94.00
2017-12-10T12:52:03.636Z,94.00
2017-12-10T12:53:15.321Z,94.10
2017-12-10T12:54:17.863Z,94.10
2017-12-10T12:55:44.323Z,94.10
2017-12-10T12:56:46.857Z,94.10
2017-12-10T12:57:52.204Z,94.20
2017-12-10T12:58:54.815Z,94.20
2017-12-10T12:59:58.479Z,94.10
2017-12-10T13:01:00.996Z,94.30
2017-12-10T13:03:53.409Z,94.30
2017-12-10T13:04:56.040Z,94.40
2017-12-10T13:06:02.076Z,94.60
2017-12-10T13:07:04.561Z,94.80
2017-12-10T13:08:12.900Z,94.80
2017-12-10T13:09:15.421Z,95.20
2017-12-10T13:10:23.227Z,95.00
2017-12-10T13:11:25.881Z,95.00
2017-12-10T13:13:58.256Z,95.00
2017-12-10T13:15:01.551Z,95.00
2017-12-10T13:16:10.455Z,95.00
2017-12-10T13:17:13.750Z,95.00
2017-12-10T13:18:25.026Z,95.10
2017-12-10T13:19:28.256Z,95.00
2017-12-10T13:20:39.883Z,95.00
2017-12-10T13:21:44.980Z,95.10
2017-12-10T13:24:22.869Z,95.00
2017-12-10T13:25:25.635Z,95.80
2017-12-10T13:26:43.968Z,96.20
2017-12-10T13:27:48.039Z,95.90
2017-12-10T13:28:54.003Z,95.90
2017-12-10T13:56:46.379Z,94.90
2017-12-10T13:58:14.053Z,95.00
2017-12-10T13:59:16.702Z,95.10
2017-12-10T14:03:31.067Z,95.00
2017-12-10T14:04:33.671Z,95.00
2017-12-10T14:07:18.924Z,95.00
2017-12-10T14:08:21.479Z,95.10
2017-12-10T14:09:24.037Z,95.20
2017-12-10T14:10:26.613Z,95.10
2017-12-10T14:11:29.132Z,95.10